Time;durP1;ratioP1;P1;durP2;ratioP2;P2;SDS_P1;SDS_P2;PMS_P1;PMS_P2;Temp;Humidity;BMP_temperature;BMP_pressure;BME280_temperature;BME280_humidity;BME280_pressure;Samples;Min_cycle;Max_cycle;Signal;HPM_P1;HPM_P2
2020/12/07 00:01:11;;;;;;;97.60;48.40;;;;;;;3.21;94.48;98568.91;5050877;28;20180;-75
2020/12/07 00:03:36;;;;;;;85.90;47.47;;;;;;;3.33;94.29;98571.84;5051042;28;20211;-75
2020/12/07 00:06:01;;;;;;;87.50;46.83;;;;;;;3.39;94.34;98564.41;5050851;28;20233;-79
2020/12/07 00:08:27;;;;;;;86.33;47.97;;;;;;;3.50;93.73;98561.13;5050681;28;20175;-75
2020/12/07 00:10:52;;;;;;;85.90;45.17;;;;;;;3.57;93.40;98547.16;5041045;28;20277;-75
2020/12/07 00:13:18;;;;;;;89.83;44.47;;;;;;;3.48;92.72;98552.56;5066256;28;20547;-76
2020/12/07 00:15:44;;;;;;;81.97;44.93;;;;;;;3.40;92.22;98550.59;5070704;28;20204;-76
2020/12/07 00:18:09;;;;;;;80.50;44.07;;;;;;;3.36;92.34;98552.34;5054274;28;20614;-74
2020/12/07 00:20:35;;;;;;;78.13;44.63;;;;;;;3.36;91.76;98540.75;5050778;28;20258;-76
2020/12/07 00:23:00;;;;;;;84.10;44.80;;;;;;;3.36;91.87;98536.13;5050606;28;20244;-76
2020/12/07 00:25:26;;;;;;;77.10;41.97;;;;;;;3.28;91.86;98536.88;5050669;28;20174;-78
2020/12/07 00:27:52;;;;;;;79.90;44.53;;;;;;;3.27;91.60;98524.50;5050606;28;20163;-75
2020/12/07 00:30:17;;;;;;;85.83;46.70;;;;;;;3.21;91.83;98521.16;5050539;28;20639;-77
2020/12/07 00:32:43;;;;;;;83.50;45.87;;;;;;;3.29;92.51;98520.38;5050676;28;20170;-75
2020/12/07 00:35:08;;;;;;;82.67;46.70;;;;;;;3.29;92.46;98524.97;5032931;28;20294;-76
2020/12/07 00:37:33;;;;;;;91.50;48.90;;;;;;;3.02;93.20;98531.34;5050433;28;20255;-76
2020/12/07 00:39:59;;;;;;;92.43;48.80;;;;;;;2.92;93.58;98532.41;5050539;28;20656;-76
2020/12/07 00:42:24;;;;;;;96.40;49.10;;;;;;;2.99;93.68;98531.97;5050529;28;20220;-78
2020/12/07 00:44:49;;;;;;;85.43;46.87;;;;;;;3.28;93.44;98534.97;5032562;28;20260;-75
2020/12/07 00:47:15;;;;;;;81.73;45.13;;;;;;;3.35;92.90;98534.56;5037684;28;20277;-75
2020/12/07 00:49:40;;;;;;;79.67;43.57;;;;;;;3.34;92.60;98532.97;5066479;28;20216;-76
2020/12/07 00:52:07;;;;;;;81.57;44.70;;;;;;;3.34;92.39;98515.97;5074648;28;20523;-77
2020/12/07 00:54:33;;;;;;;93.73;47.03;;;;;;;3.37;92.35;98521.53;5074428;28;20178;-76
2020/12/07 00:57:00;;;;;;;79.77;44.33;;;;;;;3.46;92.62;98510.75;5074246;28;20501;-75
2020/12/07 00:59:26;;;;;;;81.50;44.43;;;;;;;3.55;92.51;98515.09;5072541;28;20182;-76
2020/12/07 01:01:53;;;;;;;85.03;45.03;;;;;;;3.51;92.32;98514.13;5065734;28;20646;-77
2020/12/07 01:04:18;;;;;;;90.30;48.33;;;;;;;3.11;92.75;98521.41;5074147;28;20607;-75
2020/12/07 01:06:47;;;;;;;106.77;50.90;;;;;;;3.08;92.82;98522.03;5055954;28;20188;-75
2020/12/07 01:09:14;;;;;;;93.80;49.33;;;;;;;3.12;93.12;98531.09;5074102;28;20178;-76
2020/12/07 01:11:43;;;;;;;92.90;48.47;;;;;;;3.28;93.20;98518.00;5056202;28;20182;-76
2020/12/07 01:14:13;;;;;;;78.03;44.27;;;;;;;3.49;92.87;98507.47;5074059;28;20543;-76
2020/12/07 01:16:42;;;;;;;78.70;43.87;;;;;;;3.52;92.08;98521.13;5073604;28;20178;-75
2020/12/07 01:19:08;;;;;;;77.33;44.57;;;;;;;3.48;91.57;98517.47;5073961;28;20531;-75
2020/12/07 01:21:35;;;;;;;81.57;43.83;;;;;;;3.48;91.69;98500.47;5073851;28;20179;-76
2020/12/07 01:24:01;;;;;;;82.90;42.07;;;;;;;3.45;91.98;98488.38;5074016;28;20217;-76
2020/12/07 01:26:27;;;;;;;76.20;43.10;;;;;;;3.38;91.27;98493.44;5073472;28;20178;-76
2020/12/07 01:28:55;;;;;;;80.67;44.30;;;;;;;3.38;91.89;98498.03;5073820;28;20264;-78
2020/12/07 01:31:20;;;;;;;81.40;45.37;;;;;;;3.45;91.66;98493.75;5055785;28;20179;-77
2020/12/07 01:33:46;;;;;;;73.53;41.97;;;;;;;3.46;91.66;98489.97;5073870;28;20311;-75
2020/12/07 01:36:12;;;;;;;84.03;43.77;;;;;;;3.45;91.77;98490.28;5073445;28;20184;-76
2020/12/07 01:38:37;;;;;;;88.50;45.73;;;;;;;3.19;92.27;98476.69;5055565;28;20185;-75
2020/12/07 01:41:03;;;;;;;83.33;45.37;;;;;;;3.15;92.93;98468.41;5056823;28;20168;-74
2020/12/07 01:43:28;;;;;;;89.63;47.87;;;;;;;3.21;93.02;98467.19;5053581;28;20205;-76
2020/12/07 01:45:55;;;;;;;96.13;49.60;;;;;;;2.88;93.72;98469.38;5053432;28;20647;-76
2020/12/07 01:48:21;;;;;;;96.77;49.80;;;;;;;2.85;93.99;98470.00;5053249;28;20638;-76
2020/12/07 01:50:46;;;;;;;103.70;51.60;;;;;;;2.80;94.23;98469.34;5053344;28;20171;-77
2020/12/07 01:53:12;;;;;;;109.03;51.90;;;;;;;2.78;94.41;98466.97;5053603;28;20175;-75
2020/12/07 01:55:40;;;;;;;108.20;51.73;;;;;;;2.88;94.39;98460.50;5053244;28;20175;-75
2020/12/07 01:58:06;;;;;;;103.70;52.37;;;;;;;2.78;94.60;98466.19;5034280;28;20237;-76
2020/12/07 02:00:31;;;;;;;110.30;54.73;;;;;;;2.73;94.76;98477.88;5053067;28;20179;-78
2020/12/07 02:02:57;;;;;;;108.00;53.17;;;;;;;2.59;95.53;98490.63;5053294;28;20220;-76
2020/12/07 02:05:23;;;;;;;115.90;56.10;;;;;;;2.53;95.64;98486.47;5053375;28;20179;-75
2020/12/07 02:07:50;;;;;;;107.23;54.77;;;;;;;2.50;96.13;98482.50;5052847;28;20283;-75
2020/12/07 02:10:16;;;;;;;122.07;58.17;;;;;;;2.43;96.41;98475.94;5053002;28;20228;-75
2020/12/07 02:12:41;;;;;;;127.10;58.57;;;;;;;2.39;96.50;98479.22;5052960;28;20175;-76
2020/12/07 02:15:06;;;;;;;122.33;56.57;;;;;;;2.43;96.92;98475.94;5035004;28;20222;-77
2020/12/07 02:17:32;;;;;;;119.33;56.73;;;;;;;2.44;97.08;98480.22;5052801;28;20613;-76
2020/12/07 02:19:57;;;;;;;131.67;59.97;;;;;;;2.41;96.98;98464.66;5052840;28;20635;-75
2020/12/07 02:22:23;;;;;;;142.40;60.60;;;;;;;2.38;97.24;98445.31;5052839;28;20186;-75
2020/12/07 02:24:48;;;;;;;134.63;61.20;;;;;;;2.36;97.34;98447.53;5052952;28;20207;-76
2020/12/07 02:27:13;;;;;;;144.27;58.97;;;;;;;2.37;97.46;98449.13;5052453;28;20306;-76
2020/12/07 02:29:39;;;;;;;140.57;60.93;;;;;;;2.38;97.64;98447.22;5052638;28;20257;-75
2020/12/07 02:32:15;;;;;;;142.67;60.30;;;;;;;2.36;97.64;98452.91;5052795;28;20266;-75
2020/12/07 02:34:42;;;;;;;125.23;58.40;;;;;;;2.52;97.49;98437.16;5052662;28;20206;-76
2020/12/07 02:37:08;;;;;;;133.47;56.87;;;;;;;2.49;97.38;98443.16;5052289;28;20179;-75
2020/12/07 02:39:34;;;;;;;118.07;55.33;;;;;;;2.66;97.42;98443.28;5052509;28;20183;-76
2020/12/07 02:42:02;;;;;;;100.40;54.03;;;;;;;2.91;97.28;98441.81;5052448;28;20244;-75
2020/12/07 02:44:27;;;;;;;93.23;49.57;;;;;;;3.04;97.21;98448.22;5052276;28;20589;-76
2020/12/07 02:46:59;;;;;;;91.07;48.17;;;;;;;3.27;96.98;98449.75;5034183;28;20175;-75
2020/12/07 02:49:27;;;;;;;79.77;46.73;;;;;;;3.39;96.32;98441.03;5052333;28;20220;-76
2020/12/07 02:51:52;;;;;;;77.17;43.90;;;;;;;3.46;96.15;98427.88;5052467;28;20543;-75
2020/12/07 02:54:18;;;;;;;73.80;41.93;;;;;;;3.46;95.88;98443.28;5052482;28;20181;-76
2020/12/07 02:56:43;;;;;;;85.57;45.47;;;;;;;3.41;95.33;98449.63;5051909;28;20176;-76
2020/12/07 02:59:08;;;;;;;86.47;47.67;;;;;;;3.40;95.24;98444.53;5052098;28;20178;-75
2020/12/07 03:01:34;;;;;;;86.20;47.20;;;;;;;3.45;95.26;98457.88;5052110;28;20752;-75
2020/12/07 03:03:59;;;;;;;86.37;47.00;;;;;;;3.15;94.77;98444.13;5051933;28;20210;-76
2020/12/07 03:06:26;;;;;;;87.90;48.53;;;;;;;2.91;94.94;98443.72;5051652;28;20175;-75
2020/12/07 03:08:51;;;;;;;110.57;53.60;;;;;;;2.69;95.92;98445.34;5051862;28;20198;-76
2020/12/07 03:11:16;;;;;;;116.87;54.70;;;;;;;2.68;96.29;98448.34;5051815;28;20250;-76
2020/12/07 03:13:42;;;;;;;117.97;55.60;;;;;;;2.60;96.61;98455.31;5051847;28;20182;-77
2020/12/07 03:16:07;;;;;;;117.07;55.90;;;;;;;2.62;96.43;98471.16;5051530;28;20641;-76
2020/12/07 03:18:32;;;;;;;106.97;52.70;;;;;;;2.78;96.62;98474.28;5051591;28;20194;-76
2020/12/07 03:20:58;;;;;;;101.33;50.57;;;;;;;2.96;96.51;98474.03;5051683;28;20189;-77
2020/12/07 03:23:23;;;;;;;85.37;47.80;;;;;;;3.17;96.18;98465.41;5051885;28;20221;-75
2020/12/07 03:25:48;;;;;;;84.20;44.13;;;;;;;3.29;95.47;98471.00;5051899;28;20619;-76
2020/12/07 03:28:14;;;;;;;77.70;43.93;;;;;;;3.33;95.29;98438.78;5051582;28;20171;-77
2020/12/07 03:30:39;;;;;;;78.73;42.57;;;;;;;3.35;94.51;98460.88;5067807;28;20182;-76
2020/12/07 03:33:04;;;;;;;77.03;44.53;;;;;;;3.41;94.23;98460.41;5058371;28;20584;-76
2020/12/07 03:35:30;;;;;;;74.37;42.50;;;;;;;3.45;93.90;98437.09;5051581;28;20262;-75
2020/12/07 03:37:55;;;;;;;74.73;41.77;;;;;;;3.41;93.91;98436.13;5051274;28;20194;-76
2020/12/07 03:40:20;;;;;;;75.40;41.67;;;;;;;3.31;93.31;98433.72;5033951;28;20269;-74
2020/12/07 03:42:46;;;;;;;79.47;42.37;;;;;;;3.27;93.33;98422.75;5051880;28;20225;-75
2020/12/07 03:45:11;;;;;;;79.60;44.23;;;;;;;3.32;93.52;98434.50;5051290;28;20293;-75
2020/12/07 03:47:36;;;;;;;87.83;45.50;;;;;;;3.29;93.83;98425.13;5051129;28;20198;-76
2020/12/07 03:50:02;;;;;;;82.57;45.07;;;;;;;3.33;93.49;98422.59;5051489;28;20183;-76
2020/12/07 03:52:27;;;;;;;85.97;43.53;;;;;;;3.42;93.79;98426.13;5051502;28;20508;-76
2020/12/07 03:54:53;;;;;;;79.37;45.27;;;;;;;3.38;93.28;98423.25;5033224;28;20524;-74
2020/12/07 03:57:18;;;;;;;82.80;44.07;;;;;;;3.26;93.40;98450.06;5050920;28;20175;-75
2020/12/07 03:59:43;;;;;;;88.93;48.07;;;;;;;3.01;94.63;98461.53;5051002;28;20642;-74
2020/12/07 04:02:09;;;;;;;119.63;67.43;;;;;;;3.03;94.82;98462.00;5049897;28;20443;-75
2020/12/07 04:04:46;;;;;;;113.77;57.23;;;;;;;3.09;94.89;98458.88;5050814;28;20758;-75
2020/12/07 04:07:12;;;;;;;105.77;52.67;;;;;;;2.99;94.90;98459.94;5033428;28;20171;-76
2020/12/07 04:09:37;;;;;;;103.60;51.23;;;;;;;2.95;95.09;98452.78;5051025;28;20571;-75
2020/12/07 04:12:02;;;;;;;108.10;52.57;;;;;;;2.91;95.10;98441.81;5050833;28;20175;-76
2020/12/07 04:14:28;;;;;;;89.50;47.63;;;;;;;3.23;95.10;98426.41;5051109;28;20175;-76
2020/12/07 04:16:53;;;;;;;81.53;44.10;;;;;;;3.37;94.73;98421.69;5050580;28;20274;-74
2020/12/07 04:19:18;;;;;;;78.93;43.47;;;;;;;3.46;94.67;98414.38;5050705;28;20175;-76
2020/12/07 04:21:44;;;;;;;72.33;42.57;;;;;;;3.54;94.00;98421.72;5050331;28;20179;-76
2020/12/07 04:24:09;;;;;;;76.53;41.57;;;;;;;3.54;93.53;98416.31;5050841;28;20207;-76
2020/12/07 04:26:35;;;;;;;70.40;41.40;;;;;;;3.59;93.19;98413.44;5050632;28;20180;-77
2020/12/07 04:29:00;;;;;;;70.93;41.63;;;;;;;3.56;93.16;98414.09;5050659;28;20284;-76
2020/12/07 04:31:26;;;;;;;74.47;42.40;;;;;;;3.55;92.70;98411.72;5050675;28;20226;-75
2020/12/07 04:33:51;;;;;;;75.70;40.37;;;;;;;3.38;92.42;98409.78;5050549;28;20167;-75
2020/12/07 04:36:17;;;;;;;77.73;41.57;;;;;;;3.26;92.49;98404.97;5050387;28;20182;-76
2020/12/07 04:38:42;;;;;;;83.07;42.93;;;;;;;3.24;93.13;98411.78;5050826;28;20174;-75
2020/12/07 04:41:08;;;;;;;84.70;44.53;;;;;;;3.22;93.43;98408.63;5050915;28;20258;-74
2020/12/07 04:43:35;;;;;;;87.33;45.00;;;;;;;3.22;93.43;98398.63;5032519;28;20571;-75
2020/12/07 04:46:00;;;;;;;88.37;46.13;;;;;;;3.37;93.80;98404.69;5050493;28;20176;-77
2020/12/07 04:48:27;;;;;;;89.57;44.87;;;;;;;3.41;93.79;98401.03;5050324;28;20183;-76
2020/12/07 04:50:54;;;;;;;81.23;43.37;;;;;;;3.34;93.27;98408.03;5050466;28;20176;-75
2020/12/07 04:53:21;;;;;;;80.30;42.80;;;;;;;3.26;93.75;98398.78;5050528;28;20214;-75
2020/12/07 04:55:46;;;;;;;79.47;43.43;;;;;;;3.26;93.62;98404.19;5050322;28;20634;-75
2020/12/07 04:58:13;;;;;;;72.23;41.03;;;;;;;3.26;93.20;98402.28;5050274;28;20209;-75
2020/12/07 05:00:40;;;;;;;84.30;43.37;;;;;;;3.17;93.50;98384.47;5050362;28;20263;-75
2020/12/07 05:03:05;;;;;;;86.30;43.93;;;;;;;3.13;93.50;98395.09;5050284;28;20801;-75
2020/12/07 05:05:31;;;;;;;90.93;45.90;;;;;;;3.15;93.65;98403.66;5050589;28;20199;-75
2020/12/07 05:07:59;;;;;;;101.57;48.40;;;;;;;2.91;94.73;98397.88;5050114;28;20203;-75
2020/12/07 05:10:35;;;;;;;111.90;52.83;;;;;;;2.74;95.52;98387.00;5050370;28;20654;-75
2020/12/07 05:13:13;;;;;;;118.77;53.00;;;;;;;2.72;95.71;98381.91;5050274;28;20641;-76
2020/12/07 05:15:40;;;;;;;122.73;54.40;;;;;;;2.69;96.13;98386.03;5050015;28;20167;-76
2020/12/07 05:18:06;;;;;;;124.33;55.83;;;;;;;2.77;96.45;98403.38;5049954;28;20190;-75
2020/12/07 05:20:31;;;;;;;110.93;52.30;;;;;;;3.01;96.38;98405.69;5050145;28;20167;-76
2020/12/07 05:22:58;;;;;;;96.03;49.40;;;;;;;3.22;96.22;98414.00;5050436;28;20300;-75
2020/12/07 05:25:46;;;;;;;100.97;52.17;;;;;;;3.33;95.87;98414.50;5050377;28;20175;-75
2020/12/07 05:28:16;;;;;;;89.23;47.53;;;;;;;3.42;95.76;98428.81;5050242;28;20167;-76
2020/12/07 05:30:43;;;;;;;90.17;47.90;;;;;;;3.32;95.46;98427.19;5050096;28;20643;-76
2020/12/07 05:33:08;;;;;;;85.80;45.17;;;;;;;3.28;95.64;98424.34;5051674;28;20222;-76
2020/12/07 05:35:38;;;;;;;89.20;45.97;;;;;;;3.32;95.40;98429.91;5053878;28;20206;-77
2020/12/07 05:38:04;;;;;;;83.30;45.97;;;;;;;3.38;95.33;98425.16;5053676;28;20182;-78
2020/12/07 05:40:30;;;;;;;83.90;46.37;;;;;;;3.52;95.19;98432.03;5035719;28;20207;-76
2020/12/07 05:42:57;;;;;;;81.90;45.10;;;;;;;3.68;94.49;98447.78;5053824;28;20215;-76
2020/12/07 05:45:24;;;;;;;79.90;43.00;;;;;;;3.65;94.77;98451.13;5053915;28;20187;-75
2020/12/07 05:47:52;;;;;;;82.47;44.10;;;;;;;3.66;94.26;98440.00;5056700;28;20183;-75
2020/12/07 05:50:18;;;;;;;76.40;43.13;;;;;;;3.71;94.17;98425.53;5053390;28;20182;-76
2020/12/07 05:52:50;;;;;;;75.33;43.47;;;;;;;3.75;93.64;98423.78;5053509;28;20180;-75
2020/12/07 05:55:17;;;;;;;78.00;42.50;;;;;;;3.69;93.28;98419.66;5053209;28;20236;-76
2020/12/07 05:57:48;;;;;;;75.00;39.50;;;;;;;3.55;92.91;98415.19;5053090;28;20179;-76
2020/12/07 06:00:19;;;;;;;77.30;41.17;;;;;;;3.47;93.29;98416.00;5035384;28;20550;-76
2020/12/07 06:02:49;;;;;;;85.50;42.63;;;;;;;3.45;93.92;98418.19;5053055;28;20178;-77
2020/12/07 06:05:15;;;;;;;83.50;41.33;;;;;;;3.44;94.34;98422.00;5053121;28;20175;-74
2020/12/07 06:07:45;;;;;;;73.40;39.57;;;;;;;3.46;94.64;98430.56;5053206;28;20177;-76
2020/12/07 06:10:12;;;;;;;80.10;41.27;;;;;;;3.49;94.95;98435.38;5053315;28;20182;-74
2020/12/07 06:12:42;;;;;;;72.87;39.00;;;;;;;3.54;94.82;98443.31;5052892;28;20902;-77
2020/12/07 06:15:07;;;;;;;42.20;22.90;;;;;;;3.60;94.98;98441.25;5052971;28;20183;-78
2020/12/07 06:17:33;;;;;;;85.20;45.73;;;;;;;3.61;95.04;98431.25;5052728;28;20430;-76
2020/12/07 06:19:59;;;;;;;82.97;45.03;;;;;;;3.62;95.04;98433.66;5052951;28;20599;-82
2020/12/07 06:22:25;;;;;;;85.37;45.93;;;;;;;3.62;95.29;98452.56;5052847;28;20689;-77
2020/12/07 06:24:52;;;;;;;87.43;45.37;;;;;;;3.65;95.33;98451.13;5052594;28;20207;-77
2020/12/07 06:27:18;;;;;;;79.00;44.20;;;;;;;3.69;95.48;98438.56;5034595;28;20650;-80
2020/12/07 06:30:05;;;;;;;64.30;39.20;;;;;;;3.76;95.10;98436.19;5034919;28;20670;-76
2020/12/07 06:32:49;;;;;;;65.77;39.57;;;;;;;3.83;95.17;98450.03;5052681;28;20167;-75
2020/12/07 06:35:15;;;;;;;60.37;36.13;;;;;;;3.87;94.46;98453.69;5052492;28;20255;-77
2020/12/07 06:37:50;;;;;;;63.53;38.93;;;;;;;3.85;94.82;98450.50;5052470;28;20258;-77
2020/12/07 06:40:18;;;;;;;72.83;39.70;;;;;;;3.76;94.35;98453.22;5034548;28;20316;-75
2020/12/07 06:42:47;;;;;;;84.10;43.97;;;;;;;3.67;93.75;98463.19;5034477;28;20647;-76
2020/12/07 06:45:21;;;;;;;86.87;44.60;;;;;;;3.67;93.94;98457.00;5052004;28;20171;-76
2020/12/07 06:47:49;;;;;;;81.47;43.73;;;;;;;3.67;93.85;98465.91;5052151;28;20704;-76
2020/12/07 06:50:17;;;;;;;80.17;43.53;;;;;;;3.70;93.74;98486.88;5052332;28;20170;-76
2020/12/07 06:52:44;;;;;;;81.37;44.27;;;;;;;3.72;93.66;98473.03;5052166;28;20163;-77
2020/12/07 06:55:12;;;;;;;81.23;43.17;;;;;;;3.77;93.90;98478.31;5052137;28;20680;-75
2020/12/07 06:57:42;;;;;;;81.50;44.27;;;;;;;3.80;93.84;98488.47;5051943;28;20171;-76
2020/12/07 07:00:24;;;;;;;85.40;46.03;;;;;;;3.78;94.32;98485.31;5055132;28;20259;-77
2020/12/07 07:02:53;;;;;;;83.37;42.70;;;;;;;3.93;93.93;98495.66;5067281;28;20183;-76
2020/12/07 07:05:21;;;;;;;72.77;41.63;;;;;;;4.02;94.00;98492.94;5071853;28;20634;-77
2020/12/07 07:07:47;;;;;;;71.30;40.20;;;;;;;4.00;93.82;98484.38;5071724;28;20198;-74
2020/12/07 07:10:16;;;;;;;67.07;38.97;;;;;;;3.96;93.70;98475.31;5071745;28;20174;-77
2020/12/07 07:12:43;;;;;;;50.33;33.33;;;;;;;3.94;93.49;98470.22;5071782;28;20257;-75
2020/12/07 07:15:10;;;;;;;42.00;31.63;;;;;;;3.96;93.24;98478.03;5071732;28;20244;-76
2020/12/07 07:17:41;;;;;;;49.63;33.63;;;;;;;3.89;93.30;98483.88;5071408;28;20187;-75
2020/12/07 07:20:09;;;;;;;37.00;26.63;;;;;;;3.82;94.03;98489.75;5071570;28;20253;-75
2020/12/07 07:22:37;;;;;;;28.77;23.80;;;;;;;3.74;93.42;98495.91;5034731;28;20333;-77
2020/12/07 07:28:05;;;;;;;19.00;17.10;;;;;;;3.59;93.59;98490.97;5051731;28;20386;-76
2020/12/07 07:30:32;;;;;;;25.97;22.13;;;;;;;3.54;93.67;98499.22;5051572;28;20251;-75
2020/12/07 07:32:58;;;;;;;21.27;18.63;;;;;;;3.51;93.80;98503.34;5033564;28;20179;-75
2020/12/07 07:35:25;;;;;;;29.35;26.77;;;;;;;3.54;93.81;98510.81;5050812;28;20480;-77
2020/12/07 07:37:51;;;;;;;22.57;20.47;;;;;;;3.63;93.92;98518.16;5051200;28;20167;-76
2020/12/07 07:40:18;;;;;;;19.20;17.47;;;;;;;3.64;93.36;98511.63;5051303;28;20194;-75
2020/12/07 07:42:55;;;;;;;21.57;19.67;;;;;;;3.59;93.53;98516.03;5051217;28;20175;-77
2020/12/07 07:45:23;;;;;;;16.70;15.20;;;;;;;3.68;93.19;98545.00;5051368;28;20240;-78
2020/12/07 07:48:01;;;;;;;15.90;14.60;;;;;;;3.65;93.42;98534.81;5051032;28;20171;-76
2020/12/07 08:17:59;;;;;;;10.60;9.80;;;;;;;3.55;92.11;98566.38;5070604;28;20440;-77
2020/12/07 08:20:30;;;;;;;7.47;6.87;;;;;;;3.63;92.06;98580.25;5071078;28;20738;-77
2020/12/07 08:23:02;;;;;;;8.37;7.67;;;;;;;3.68;92.32;98577.41;5070676;28;20159;-77
2020/12/07 08:25:45;;;;;;;4.00;3.60;;;;;;;3.68;91.56;98566.59;5070504;28;20511;-80
2020/12/07 08:28:31;;;;;;;8.30;7.63;;;;;;;3.68;91.38;98572.78;5070597;28;20820;-77
2020/12/07 08:30:59;;;;;;;10.43;9.53;;;;;;;3.67;91.38;98587.41;5070588;28;20416;-76
2020/12/07 08:33:24;;;;;;;10.13;9.33;;;;;;;3.69;90.61;98619.50;5070771;28;20269;-73
2020/12/07 08:35:50;;;;;;;7.27;6.63;;;;;;;3.69;90.91;98630.31;5070589;28;20170;-76
2020/12/07 08:38:39;;;;;;;4.87;4.50;;;;;;;3.70;90.14;98618.38;5070505;28;20178;-77
2020/12/07 08:41:07;;;;;;;9.40;7.77;;;;;;;3.70;90.59;98613.00;5070570;28;20162;-73
2020/12/07 08:43:34;;;;;;;4.87;4.47;;;;;;;3.68;91.03;98609.81;5070330;28;20504;-73
2020/12/07 08:45:59;;;;;;;10.43;9.63;;;;;;;3.68;91.05;98626.81;5070717;28;20706;-73
2020/12/07 08:48:24;;;;;;;8.43;7.73;;;;;;;3.71;90.82;98634.28;5070337;28;20202;-75
2020/12/07 08:50:53;;;;;;;3.47;3.17;;;;;;;3.70;90.80;98629.19;5070292;28;20534;-73
2020/12/07 08:53:18;;;;;;;8.47;7.73;;;;;;;3.70;90.72;98640.78;5070302;28;20183;-73
2020/12/07 08:55:43;;;;;;;11.03;10.13;;;;;;;3.72;90.73;98626.97;5070247;28;20228;-73
2020/12/07 08:58:09;;;;;;;12.20;11.30;;;;;;;3.72;91.30;98635.88;5070016;28;20654;-79
2020/12/07 09:00:34;;;;;;;11.47;10.57;;;;;;;3.76;91.38;98638.75;5060753;28;20195;-73
2020/12/07 09:02:59;;;;;;;11.63;10.73;;;;;;;3.79;91.40;98638.13;5038751;28;20164;-72
2020/12/07 09:05:25;;;;;;;10.50;9.70;;;;;;;3.83;91.26;98644.50;5040163;28;20305;-76
2020/12/07 09:07:51;;;;;;;8.97;8.17;;;;;;;3.77;91.07;98645.75;5024682;28;20198;-77
2020/12/07 09:10:16;;;;;;;11.03;10.17;;;;;;;3.78;90.83;98658.16;5051056;28;20442;-78
2020/12/07 09:12:42;;;;;;;12.00;11.00;;;;;;;3.79;91.57;98665.94;5054006;28;20627;-78
2020/12/07 09:15:07;;;;;;;11.70;10.80;;;;;;;3.82;91.36;98656.41;5053759;28;20684;-78
2020/12/07 09:17:32;;;;;;;12.00;11.17;;;;;;;3.82;91.63;98659.91;5053773;28;20191;-78
2020/12/07 09:19:58;;;;;;;8.27;7.57;;;;;;;3.81;91.24;98654.81;5053918;28;20623;-77
2020/12/07 09:22:23;;;;;;;12.50;11.40;;;;;;;3.77;90.76;98656.56;5053678;28;20198;-78
2020/12/07 09:24:49;;;;;;;11.57;10.20;;;;;;;3.74;91.31;98646.34;5055162;28;20249;-77
2020/12/07 09:27:15;;;;;;;12.50;11.33;;;;;;;3.74;91.42;98647.16;5055847;28;20464;-78
2020/12/07 09:29:43;;;;;;;13.30;12.13;;;;;;;3.77;91.30;98653.84;5053065;28;20598;-77
2020/12/07 09:32:10;;;;;;;13.90;12.73;;;;;;;3.76;91.58;98649.53;5053550;28;20175;-78
2020/12/07 09:34:36;;;;;;;10.27;9.27;;;;;;;3.79;91.52;98674.03;5053694;28;20186;-77
2020/12/07 09:37:01;;;;;;;11.27;10.30;;;;;;;3.79;91.50;98665.16;5055701;28;20244;-77
2020/12/07 09:39:27;;;;;;;12.43;11.43;;;;;;;3.77;91.40;98673.56;5044245;28;20517;-77
2020/12/07 09:41:53;;;;;;;11.80;10.90;;;;;;;3.78;91.00;98668.97;5054515;28;20579;-77
2020/12/07 09:44:19;;;;;;;4.30;3.93;;;;;;;3.77;91.30;98667.38;5053425;28;20201;-76
2020/12/07 09:46:44;;;;;;;10.73;9.93;;;;;;;3.74;91.05;98667.97;5053414;28;20546;-74
2020/12/07 09:49:10;;;;;;;13.47;12.07;;;;;;;3.74;91.58;98676.84;5053515;28;20178;-75
2020/12/07 09:51:35;;;;;;;12.53;10.67;;;;;;;3.78;91.20;98675.16;5053610;28;20267;-75
2020/12/07 09:54:00;;;;;;;10.53;9.63;;;;;;;3.80;91.08;98685.66;5053434;28;20635;-74
2020/12/07 09:56:30;;;;;;;10.80;9.87;;;;;;;3.84;90.62;98681.22;5053265;28;20178;-75
2020/12/07 09:58:56;;;;;;;12.53;11.50;;;;;;;3.84;91.08;98673.09;5035545;28;20183;-74
2020/12/07 10:01:22;;;;;;;8.33;7.47;;;;;;;3.86;90.42;98687.88;5035472;28;20171;-74
2020/12/07 10:03:47;;;;;;;8.83;8.03;;;;;;;3.87;90.59;98685.97;5053020;28;20203;-75
2020/12/07 10:06:12;;;;;;;11.40;10.53;;;;;;;3.86;90.44;98687.09;5052960;28;20179;-74
2020/12/07 10:08:38;;;;;;;10.33;9.57;;;;;;;3.83;91.05;98693.91;5053042;28;20180;-74
2020/12/07 10:11:03;;;;;;;9.27;8.47;;;;;;;3.85;90.67;98699.00;5053111;28;20365;-74
2020/12/07 10:13:28;;;;;;;4.70;3.93;;;;;;;3.85;90.70;98707.91;5035126;28;20576;-74
2020/12/07 10:15:54;;;;;;;9.87;8.90;;;;;;;3.84;90.38;98703.63;5053003;28;20167;-74
2020/12/07 10:18:19;;;;;;;9.50;8.83;;;;;;;3.86;90.07;98703.31;5034055;28;20245;-74
2020/12/07 10:20:46;;;;;;;9.67;8.87;;;;;;;3.85;90.27;98717.91;5052700;28;20177;-74
2020/12/07 10:23:11;;;;;;;8.70;8.00;;;;;;;3.91;89.60;98722.09;5052709;28;20195;-74
2020/12/07 10:25:37;;;;;;;9.50;8.70;;;;;;;3.93;89.91;98719.88;5053036;28;20186;-74
2020/12/07 10:28:02;;;;;;;8.73;8.13;;;;;;;3.97;89.73;98725.44;5052403;28;20211;-74
2020/12/07 10:30:27;;;;;;;9.33;8.53;;;;;;;3.98;89.27;98711.63;5059522;28;20236;-74
2020/12/07 10:32:53;;;;;;;6.57;6.07;;;;;;;3.99;89.03;98710.53;5063470;28;20196;-75
2020/12/07 10:35:18;;;;;;;7.60;7.00;;;;;;;3.98;89.00;98717.03;5059596;28;20233;-75
2020/12/07 10:37:45;;;;;;;7.80;7.30;;;;;;;3.97;88.97;98717.34;5052368;28;20183;-75
2020/12/07 10:40:11;;;;;;;8.23;7.63;;;;;;;3.96;89.08;98710.34;5052409;28;20184;-79
2020/12/07 10:42:36;;;;;;;7.30;6.80;;;;;;;3.99;88.90;98721.31;5052347;28;20414;-75
2020/12/07 10:45:02;;;;;;;8.43;7.83;;;;;;;3.93;89.04;98719.88;5052541;28;20209;-75
2020/12/07 10:47:27;;;;;;;7.73;7.23;;;;;;;3.94;89.29;98723.38;5052255;28;20168;-75
2020/12/07 10:49:52;;;;;;;7.00;6.57;;;;;;;3.98;89.27;98733.25;5052237;28;20228;-78
2020/12/07 10:52:18;;;;;;;7.53;7.03;;;;;;;3.95;88.88;98738.47;5052174;28;20229;-75
2020/12/07 10:54:43;;;;;;;7.43;6.93;;;;;;;4.04;88.67;98744.72;5051984;28;20195;-75
2020/12/07 10:57:08;;;;;;;6.43;6.03;;;;;;;4.11;87.82;98745.06;5051859;28;20186;-74
2020/12/07 10:59:34;;;;;;;6.40;6.00;;;;;;;4.13;87.77;98751.75;5052290;28;20199;-74
2020/12/07 11:01:59;;;;;;;6.20;5.80;;;;;;;4.06;87.86;98758.72;5052312;28;20183;-75
2020/12/07 11:04:24;;;;;;;6.43;6.03;;;;;;;4.07;88.16;98758.41;5052099;28;20203;-75
2020/12/07 11:06:52;;;;;;;6.20;5.87;;;;;;;4.03;87.67;98757.41;5051796;28;20627;-72
2020/12/07 11:09:23;;;;;;;6.33;5.93;;;;;;;4.14;88.00;98763.38;5051929;28;20173;-74
2020/12/07 11:11:58;;;;;;;5.50;5.20;;;;;;;4.32;87.27;98753.44;5051783;28;20649;-75
2020/12/07 11:14:23;;;;;;;5.30;5.00;;;;;;;4.32;86.50;98758.84;5033816;28;20175;-74
2020/12/07 11:16:48;;;;;;;5.03;4.73;;;;;;;4.35;86.27;98764.44;5051618;28;20189;-74
2020/12/07 11:19:14;;;;;;;5.30;4.97;;;;;;;4.34;86.77;98762.03;5051792;28;20548;-73
2020/12/07 11:21:39;;;;;;;4.83;4.53;;;;;;;4.37;86.11;98759.50;5051973;28;20615;-74
2020/12/07 11:24:05;;;;;;;4.17;3.97;;;;;;;4.41;86.08;98762.38;5051517;28;20215;-74
2020/12/07 11:26:30;;;;;;;4.70;4.40;;;;;;;4.36;85.60;98762.53;5051260;28;20221;-75
2020/12/07 11:28:56;;;;;;;4.00;3.70;;;;;;;4.36;85.65;98771.44;5051502;28;20175;-75
2020/12/07 11:31:22;;;;;;;5.23;4.83;;;;;;;4.35;85.57;98775.25;5050444;28;20179;-74
2020/12/07 11:33:47;;;;;;;5.07;4.77;;;;;;;4.36;86.18;98771.44;5051465;28;20224;-75
2020/12/07 11:36:13;;;;;;;5.60;5.20;;;;;;;4.41;86.13;98784.81;5051356;28;20246;-74
2020/12/07 11:38:47;;;;;;;5.40;5.10;;;;;;;4.41;86.08;98770.50;5051464;28;20530;-74
2020/12/07 11:41:42;;;;;;;11.27;10.27;;;;;;;4.48;86.13;98770.81;5033305;28;20262;-74
2020/12/07 11:44:12;;;;;;;6.27;5.87;;;;;;;4.47;86.26;98771.94;5051498;28;20655;-75
2020/12/07 11:49:03;;;;;;;4.93;4.60;;;;;;;4.58;85.32;98784.09;5051157;28;20509;-75
2020/12/07 11:51:28;;;;;;;4.07;3.87;;;;;;;4.65;85.01;98778.22;5050987;28;20171;-74
2020/12/07 11:53:55;;;;;;;4.20;4.00;;;;;;;4.59;85.13;98779.47;5060580;28;20693;-76
2020/12/07 11:56:32;;;;;;;3.03;2.93;;;;;;;4.70;84.61;98772.66;5056106;28;20194;-75
2020/12/07 11:58:58;;;;;;;3.73;3.43;;;;;;;4.52;84.44;98766.41;5052865;28;20175;-74